sensor_id;sensor_type;location;lat;lon;timestamp;P1;durP1;ratioP1;P2;durP2;ratioP2
6113;SDS011;3087;48.392;10.836;2023-05-29T00:01:12;11.82;;;8.60;;
6113;SDS011;3087;48.392;10.836;2023-05-29T00:03:38;11.40;;;8.02;;
6113;SDS011;3087;48.392;10.836;2023-05-29T00:06:04;11.23;;;8.02;;
6113;SDS011;3087;48.392;10.836;2023-05-29T00:08:31;13.05;;;7.30;;
6113;SDS011;3087;48.392;10.836;2023-05-29T00:10:57;10.93;;;8.55;;
6113;SDS011;3087;48.392;10.836;2023-05-29T00:13:22;13.02;;;8.25;;
6113;SDS011;3087;48.392;10.836;2023-05-29T00:15:48;15.23;;;8.68;;
6113;SDS011;3087;48.392;10.836;2023-05-29T00:18:14;14.20;;;8.45;;
6113;SDS011;3087;48.392;10.836;2023-05-29T00:20:39;12.93;;;7.95;;
6113;SDS011;3087;48.392;10.836;2023-05-29T00:23:05;12.57;;;8.50;;
6113;SDS011;3087;48.392;10.836;2023-05-29T00:25:31;11.60;;;7.47;;
6113;SDS011;3087;48.392;10.836;2023-05-29T00:27:57;10.75;;;7.68;;
6113;SDS011;3087;48.392;10.836;2023-05-29T00:30:23;13.18;;;8.63;;
6113;SDS011;3087;48.392;10.836;2023-05-29T00:32:50;14.23;;;9.20;;
6113;SDS011;3087;48.392;10.836;2023-05-29T00:35:17;11.10;;;7.75;;
6113;SDS011;3087;48.392;10.836;2023-05-29T00:37:43;15.38;;;8.10;;
6113;SDS011;3087;48.392;10.836;2023-05-29T00:40:09;12.35;;;8.40;;
6113;SDS011;3087;48.392;10.836;2023-05-29T00:42:36;10.55;;;8.13;;
6113;SDS011;3087;48.392;10.836;2023-05-29T00:45:02;15.75;;;8.27;;
6113;SDS011;3087;48.392;10.836;2023-05-29T00:47:27;11.50;;;8.27;;
6113;SDS011;3087;48.392;10.836;2023-05-29T00:49:55;13.00;;;8.45;;
6113;SDS011;3087;48.392;10.836;2023-05-29T00:52:22;10.82;;;7.70;;
6113;SDS011;3087;48.392;10.836;2023-05-29T00:54:49;12.90;;;7.97;;
6113;SDS011;3087;48.392;10.836;2023-05-29T00:57:15;11.55;;;7.80;;
6113;SDS011;3087;48.392;10.836;2023-05-29T00:59:41;11.70;;;7.40;;
6113;SDS011;3087;48.392;10.836;2023-05-29T01:02:09;12.35;;;7.88;;
6113;SDS011;3087;48.392;10.836;2023-05-29T01:04:34;11.57;;;7.60;;
6113;SDS011;3087;48.392;10.836;2023-05-29T01:07:01;10.25;;;7.65;;
6113;SDS011;3087;48.392;10.836;2023-05-29T01:09:30;11.95;;;8.15;;
6113;SDS011;3087;48.392;10.836;2023-05-29T01:17:19;10.43;;;7.70;;
6113;SDS011;3087;48.392;10.836;2023-05-29T01:20:27;10.23;;;7.25;;
6113;SDS011;3087;48.392;10.836;2023-05-29T01:25:44;12.68;;;8.35;;
6113;SDS011;3087;48.392;10.836;2023-05-29T01:28:15;11.70;;;7.05;;
6113;SDS011;3087;48.392;10.836;2023-05-29T01:30:44;12.50;;;8.05;;
6113;SDS011;3087;48.392;10.836;2023-05-29T01:33:10;9.45;;;7.22;;
6113;SDS011;3087;48.392;10.836;2023-05-29T01:35:36;11.63;;;7.30;;
6113;SDS011;3087;48.392;10.836;2023-05-29T01:38:02;11.25;;;6.88;;
6113;SDS011;3087;48.392;10.836;2023-05-29T01:40:27;10.93;;;8.27;;
6113;SDS011;3087;48.392;10.836;2023-05-29T01:42:53;12.35;;;8.00;;
6113;SDS011;3087;48.392;10.836;2023-05-29T01:45:19;9.38;;;7.22;;
6113;SDS011;3087;48.392;10.836;2023-05-29T01:47:46;10.00;;;7.22;;
6113;SDS011;3087;48.392;10.836;2023-05-29T01:50:13;11.00;;;7.35;;
6113;SDS011;3087;48.392;10.836;2023-05-29T01:52:43;12.48;;;7.00;;
6113;SDS011;3087;48.392;10.836;2023-05-29T01:55:08;10.85;;;8.05;;
6113;SDS011;3087;48.392;10.836;2023-05-29T01:57:34;11.05;;;7.35;;
6113;SDS011;3087;48.392;10.836;2023-05-29T02:00:02;9.40;;;6.75;;
6113;SDS011;3087;48.392;10.836;2023-05-29T02:02:35;11.43;;;8.13;;
6113;SDS011;3087;48.392;10.836;2023-05-29T02:05:07;12.95;;;7.22;;
6113;SDS011;3087;48.392;10.836;2023-05-29T02:07:34;9.95;;;6.93;;
6113;SDS011;3087;48.392;10.836;2023-05-29T02:10:01;8.65;;;6.78;;
6113;SDS011;3087;48.392;10.836;2023-05-29T02:12:28;10.52;;;7.32;;
6113;SDS011;3087;48.392;10.836;2023-05-29T02:14:53;8.38;;;7.13;;
6113;SDS011;3087;48.392;10.836;2023-05-29T02:17:19;11.13;;;7.60;;
6113;SDS011;3087;48.392;10.836;2023-05-29T02:19:44;9.18;;;6.93;;
6113;SDS011;3087;48.392;10.836;2023-05-29T02:22:10;10.95;;;8.00;;
6113;SDS011;3087;48.392;10.836;2023-05-29T02:24:36;12.15;;;7.15;;
6113;SDS011;3087;48.392;10.836;2023-05-29T02:27:01;10.23;;;6.88;;
6113;SDS011;3087;48.392;10.836;2023-05-29T02:29:28;11.02;;;7.60;;
6113;SDS011;3087;48.392;10.836;2023-05-29T02:31:53;11.00;;;7.25;;
6113;SDS011;3087;48.392;10.836;2023-05-29T02:34:19;8.70;;;6.13;;
6113;SDS011;3087;48.392;10.836;2023-05-29T02:36:47;9.50;;;7.88;;
6113;SDS011;3087;48.392;10.836;2023-05-29T02:39:13;9.75;;;6.97;;
6113;SDS011;3087;48.392;10.836;2023-05-29T02:41:39;9.27;;;6.38;;
6113;SDS011;3087;48.392;10.836;2023-05-29T02:44:04;8.25;;;6.45;;
6113;SDS011;3087;48.392;10.836;2023-05-29T02:46:30;10.05;;;7.05;;
6113;SDS011;3087;48.392;10.836;2023-05-29T02:48:56;8.80;;;7.10;;
6113;SDS011;3087;48.392;10.836;2023-05-29T02:51:21;11.18;;;7.32;;
6113;SDS011;3087;48.392;10.836;2023-05-29T02:53:47;9.25;;;6.97;;
6113;SDS011;3087;48.392;10.836;2023-05-29T02:56:13;9.02;;;7.18;;
6113;SDS011;3087;48.392;10.836;2023-05-29T02:58:40;8.40;;;6.70;;
6113;SDS011;3087;48.392;10.836;2023-05-29T03:01:06;8.73;;;5.95;;
6113;SDS011;3087;48.392;10.836;2023-05-29T03:03:32;9.32;;;7.35;;
6113;SDS011;3087;48.392;10.836;2023-05-29T03:05:58;9.65;;;7.57;;
6113;SDS011;3087;48.392;10.836;2023-05-29T03:08:24;9.98;;;6.90;;
6113;SDS011;3087;48.392;10.836;2023-05-29T03:10:50;14.13;;;7.15;;
6113;SDS011;3087;48.392;10.836;2023-05-29T03:13:17;9.10;;;6.93;;
6113;SDS011;3087;48.392;10.836;2023-05-29T03:15:43;9.73;;;7.45;;
6113;SDS011;3087;48.392;10.836;2023-05-29T03:18:09;11.10;;;8.10;;
6113;SDS011;3087;48.392;10.836;2023-05-29T03:20:34;10.23;;;7.50;;
6113;SDS011;3087;48.392;10.836;2023-05-29T03:23:00;10.43;;;7.47;;
6113;SDS011;3087;48.392;10.836;2023-05-29T03:25:26;9.27;;;6.40;;
6113;SDS011;3087;48.392;10.836;2023-05-29T03:27:52;10.40;;;7.05;;
6113;SDS011;3087;48.392;10.836;2023-05-29T03:30:17;10.38;;;7.03;;
6113;SDS011;3087;48.392;10.836;2023-05-29T03:32:44;10.10;;;7.25;;
6113;SDS011;3087;48.392;10.836;2023-05-29T03:35:10;11.55;;;7.65;;
6113;SDS011;3087;48.392;10.836;2023-05-29T03:37:36;10.52;;;6.47;;
6113;SDS011;3087;48.392;10.836;2023-05-29T03:40:01;8.93;;;6.75;;
6113;SDS011;3087;48.392;10.836;2023-05-29T03:42:27;12.88;;;7.28;;
6113;SDS011;3087;48.392;10.836;2023-05-29T03:44:56;11.27;;;6.93;;
6113;SDS011;3087;48.392;10.836;2023-05-29T03:47:21;8.52;;;6.57;;
6113;SDS011;3087;48.392;10.836;2023-05-29T03:49:47;8.40;;;6.63;;
6113;SDS011;3087;48.392;10.836;2023-05-29T03:52:13;8.15;;;6.15;;
6113;SDS011;3087;48.392;10.836;2023-05-29T03:54:38;9.68;;;6.55;;
6113;SDS011;3087;48.392;10.836;2023-05-29T03:57:04;8.23;;;6.18;;
6113;SDS011;3087;48.392;10.836;2023-05-29T03:59:31;10.73;;;6.30;;
6113;SDS011;3087;48.392;10.836;2023-05-29T04:01:57;11.63;;;6.72;;
6113;SDS011;3087;48.392;10.836;2023-05-29T04:04:22;7.93;;;6.57;;
6113;SDS011;3087;48.392;10.836;2023-05-29T04:06:48;11.93;;;6.57;;
6113;SDS011;3087;48.392;10.836;2023-05-29T04:09:14;9.00;;;6.65;;
6113;SDS011;3087;48.392;10.836;2023-05-29T04:11:39;9.35;;;6.63;;
6113;SDS011;3087;48.392;10.836;2023-05-29T04:14:06;8.50;;;6.28;;
6113;SDS011;3087;48.392;10.836;2023-05-29T04:16:32;9.57;;;6.53;;
6113;SDS011;3087;48.392;10.836;2023-05-29T04:18:57;11.52;;;7.20;;
6113;SDS011;3087;48.392;10.836;2023-05-29T04:21:23;9.82;;;6.43;;
6113;SDS011;3087;48.392;10.836;2023-05-29T04:23:49;8.43;;;5.97;;
6113;SDS011;3087;48.392;10.836;2023-05-29T04:26:14;8.65;;;6.22;;
6113;SDS011;3087;48.392;10.836;2023-05-29T04:28:40;10.07;;;7.03;;
6113;SDS011;3087;48.392;10.836;2023-05-29T04:31:07;10.23;;;6.68;;
6113;SDS011;3087;48.392;10.836;2023-05-29T04:33:33;9.52;;;6.50;;
6113;SDS011;3087;48.392;10.836;2023-05-29T04:36:01;7.18;;;5.78;;
6113;SDS011;3087;48.392;10.836;2023-05-29T04:38:28;10.88;;;7.25;;
6113;SDS011;3087;48.392;10.836;2023-05-29T04:40:54;8.77;;;6.07;;
6113;SDS011;3087;48.392;10.836;2023-05-29T04:43:23;9.13;;;6.18;;
6113;SDS011;3087;48.392;10.836;2023-05-29T04:45:51;8.43;;;6.18;;
6113;SDS011;3087;48.392;10.836;2023-05-29T04:48:17;12.27;;;6.47;;
6113;SDS011;3087;48.392;10.836;2023-05-29T04:50:43;9.90;;;6.13;;
6113;SDS011;3087;48.392;10.836;2023-05-29T04:53:09;9.88;;;6.13;;
6113;SDS011;3087;48.392;10.836;2023-05-29T04:55:35;8.98;;;6.20;;
6113;SDS011;3087;48.392;10.836;2023-05-29T04:58:01;10.40;;;6.00;;
6113;SDS011;3087;48.392;10.836;2023-05-29T05:00:27;8.45;;;6.45;;
6113;SDS011;3087;48.392;10.836;2023-05-29T05:02:53;8.55;;;6.40;;
6113;SDS011;3087;48.392;10.836;2023-05-29T05:05:19;10.25;;;6.85;;
6113;SDS011;3087;48.392;10.836;2023-05-29T05:07:45;9.57;;;6.57;;
6113;SDS011;3087;48.392;10.836;2023-05-29T05:10:10;9.40;;;6.03;;
6113;SDS011;3087;48.392;10.836;2023-05-29T05:12:39;7.38;;;5.88;;
6113;SDS011;3087;48.392;10.836;2023-05-29T05:15:05;9.23;;;6.88;;
6113;SDS011;3087;48.392;10.836;2023-05-29T05:17:31;11.98;;;6.43;;
6113;SDS011;3087;48.392;10.836;2023-05-29T05:19:56;8.73;;;5.80;;
6113;SDS011;3087;48.392;10.836;2023-05-29T05:22:22;9.13;;;6.93;;
6113;SDS011;3087;48.392;10.836;2023-05-29T05:24:48;10.95;;;6.32;;
6113;SDS011;3087;48.392;10.836;2023-05-29T05:27:13;8.65;;;6.25;;
6113;SDS011;3087;48.392;10.836;2023-05-29T05:29:39;9.27;;;6.38;;
6113;SDS011;3087;48.392;10.836;2023-05-29T05:32:05;10.27;;;6.40;;
6113;SDS011;3087;48.392;10.836;2023-05-29T05:34:30;8.65;;;6.00;;
6113;SDS011;3087;48.392;10.836;2023-05-29T05:36:56;8.95;;;6.68;;
6113;SDS011;3087;48.392;10.836;2023-05-29T05:39:21;9.60;;;6.50;;
6113;SDS011;3087;48.392;10.836;2023-05-29T05:41:47;13.35;;;7.03;;
6113;SDS011;3087;48.392;10.836;2023-05-29T05:44:13;11.02;;;7.43;;
6113;SDS011;3087;48.392;10.836;2023-05-29T05:46:38;13.55;;;7.00;;
6113;SDS011;3087;48.392;10.836;2023-05-29T05:49:04;9.25;;;6.03;;
6113;SDS011;3087;48.392;10.836;2023-05-29T05:51:30;8.90;;;6.68;;
6113;SDS011;3087;48.392;10.836;2023-05-29T05:53:56;9.18;;;6.07;;
6113;SDS011;3087;48.392;10.836;2023-05-29T05:56:21;7.40;;;6.05;;
6113;SDS011;3087;48.392;10.836;2023-05-29T05:58:47;8.07;;;6.68;;
6113;SDS011;3087;48.392;10.836;2023-05-29T06:01:14;8.07;;;6.10;;
6113;SDS011;3087;48.392;10.836;2023-05-29T06:03:40;9.75;;;6.30;;
6113;SDS011;3087;48.392;10.836;2023-05-29T06:06:05;11.13;;;6.63;;
6113;SDS011;3087;48.392;10.836;2023-05-29T06:08:32;12.65;;;6.65;;
6113;SDS011;3087;48.392;10.836;2023-05-29T06:10:58;7.25;;;5.93;;
6113;SDS011;3087;48.392;10.836;2023-05-29T06:13:23;9.93;;;6.32;;
6113;SDS011;3087;48.392;10.836;2023-05-29T06:15:49;8.43;;;6.15;;
6113;SDS011;3087;48.392;10.836;2023-05-29T06:18:15;7.82;;;5.80;;
6113;SDS011;3087;48.392;10.836;2023-05-29T06:20:41;7.75;;;6.20;;
6113;SDS011;3087;48.392;10.836;2023-05-29T06:23:06;10.82;;;6.35;;
6113;SDS011;3087;48.392;10.836;2023-05-29T06:25:32;9.98;;;6.60;;
6113;SDS011;3087;48.392;10.836;2023-05-29T06:28:00;8.88;;;6.20;;
6113;SDS011;3087;48.392;10.836;2023-05-29T06:30:27;8.07;;;6.07;;
6113;SDS011;3087;48.392;10.836;2023-05-29T06:32:53;8.25;;;5.55;;
6113;SDS011;3087;48.392;10.836;2023-05-29T06:35:20;8.65;;;6.50;;
6113;SDS011;3087;48.392;10.836;2023-05-29T06:37:46;9.57;;;5.72;;
6113;SDS011;3087;48.392;10.836;2023-05-29T06:40:12;9.18;;;5.93;;
6113;SDS011;3087;48.392;10.836;2023-05-29T06:42:38;8.30;;;5.97;;
6113;SDS011;3087;48.392;10.836;2023-05-29T06:45:04;8.25;;;5.68;;
6113;SDS011;3087;48.392;10.836;2023-05-29T06:47:29;8.30;;;5.07;;
6113;SDS011;3087;48.392;10.836;2023-05-29T06:49:55;6.90;;;5.82;;
6113;SDS011;3087;48.392;10.836;2023-05-29T06:52:21;8.88;;;6.10;;
6113;SDS011;3087;48.392;10.836;2023-05-29T06:54:46;7.70;;;5.72;;
6113;SDS011;3087;48.392;10.836;2023-05-29T06:57:12;10.45;;;5.78;;
6113;SDS011;3087;48.392;10.836;2023-05-29T06:59:37;8.82;;;5.60;;
6113;SDS011;3087;48.392;10.836;2023-05-29T07:02:03;7.30;;;5.90;;
6113;SDS011;3087;48.392;10.836;2023-05-29T07:04:29;8.88;;;5.40;;
6113;SDS011;3087;48.392;10.836;2023-05-29T07:06:55;10.02;;;5.72;;
6113;SDS011;3087;48.392;10.836;2023-05-29T07:09:20;8.55;;;5.93;;
6113;SDS011;3087;48.392;10.836;2023-05-29T07:11:46;9.95;;;5.97;;
6113;SDS011;3087;48.392;10.836;2023-05-29T07:14:11;10.25;;;5.57;;
6113;SDS011;3087;48.392;10.836;2023-05-29T07:16:37;10.18;;;5.70;;
6113;SDS011;3087;48.392;10.836;2023-05-29T07:19:03;10.13;;;5.50;;
6113;SDS011;3087;48.392;10.836;2023-05-29T07:21:28;9.13;;;5.88;;
6113;SDS011;3087;48.392;10.836;2023-05-29T07:23:54;9.25;;;5.50;;
6113;SDS011;3087;48.392;10.836;2023-05-29T07:26:19;6.68;;;5.38;;
6113;SDS011;3087;48.392;10.836;2023-05-29T07:28:48;6.32;;;5.30;;
6113;SDS011;3087;48.392;10.836;2023-05-29T07:31:14;9.40;;;5.25;;
6113;SDS011;3087;48.392;10.836;2023-05-29T07:33:40;10.32;;;5.43;;
6113;SDS011;3087;48.392;10.836;2023-05-29T07:36:06;9.30;;;5.60;;
6113;SDS011;3087;48.392;10.836;2023-05-29T07:38:32;7.60;;;5.55;;
6113;SDS011;3087;48.392;10.836;2023-05-29T07:40:58;10.02;;;6.07;;
6113;SDS011;3087;48.392;10.836;2023-05-29T07:43:24;7.43;;;5.30;;
6113;SDS011;3087;48.392;10.836;2023-05-29T07:45:49;10.15;;;5.43;;
6113;SDS011;3087;48.392;10.836;2023-05-29T07:48:15;7.55;;;5.38;;
6113;SDS011;3087;48.392;10.836;2023-05-29T07:50:40;8.38;;;5.97;;
6113;SDS011;3087;48.392;10.836;2023-05-29T07:53:06;8.25;;;5.50;;
6113;SDS011;3087;48.392;10.836;2023-05-29T07:55:31;7.72;;;5.28;;
6113;SDS011;3087;48.392;10.836;2023-05-29T07:57:58;8.10;;;5.68;;
6113;SDS011;3087;48.392;10.836;2023-05-29T08:00:24;7.85;;;4.95;;
6113;SDS011;3087;48.392;10.836;2023-05-29T08:02:51;8.23;;;5.82;;
6113;SDS011;3087;48.392;10.836;2023-05-29T08:05:17;9.15;;;5.68;;
6113;SDS011;3087;48.392;10.836;2023-05-29T08:07:42;7.85;;;5.13;;
6113;SDS011;3087;48.392;10.836;2023-05-29T08:10:09;8.18;;;5.90;;
6113;SDS011;3087;48.392;10.836;2023-05-29T08:12:34;7.65;;;5.30;;
6113;SDS011;3087;48.392;10.836;2023-05-29T08:15:01;11.90;;;5.68;;
6113;SDS011;3087;48.392;10.836;2023-05-29T08:17:27;7.60;;;5.18;;
6113;SDS011;3087;48.392;10.836;2023-05-29T08:19:53;7.85;;;5.80;;
6113;SDS011;3087;48.392;10.836;2023-05-29T08:22:18;8.43;;;5.60;;
6113;SDS011;3087;48.392;10.836;2023-05-29T08:24:44;10.52;;;6.03;;
6113;SDS011;3087;48.392;10.836;2023-05-29T08:27:10;9.73;;;5.70;;
6113;SDS011;3087;48.392;10.836;2023-05-29T08:29:35;9.27;;;5.30;;
6113;SDS011;3087;48.392;10.836;2023-05-29T08:32:03;9.77;;;5.65;;
6113;SDS011;3087;48.392;10.836;2023-05-29T08:34:29;9.43;;;5.07;;
6113;SDS011;3087;48.392;10.836;2023-05-29T08:36:55;10.52;;;5.40;;
6113;SDS011;3087;48.392;10.836;2023-05-29T08:39:21;7.72;;;5.30;;
6113;SDS011;3087;48.392;10.836;2023-05-29T08:41:50;8.57;;;5.25;;
6113;SDS011;3087;48.392;10.836;2023-05-29T08:44:26;6.78;;;5.60;;
6113;SDS011;3087;48.392;10.836;2023-05-29T08:46:56;7.15;;;5.53;;
6113;SDS011;3087;48.392;10.836;2023-05-29T08:49:25;7.60;;;5.53;;
6113;SDS011;3087;48.392;10.836;2023-05-29T08:52:02;8.65;;;6.38;;
6113;SDS011;3087;48.392;10.836;2023-05-29T08:54:34;10.18;;;5.43;;
6113;SDS011;3087;48.392;10.836;2023-05-29T08:57:00;10.32;;;5.60;;
6113;SDS011;3087;48.392;10.836;2023-05-29T08:59:26;6.88;;;4.45;;
6113;SDS011;3087;48.392;10.836;2023-05-29T09:01:54;9.63;;;5.95;;
6113;SDS011;3087;48.392;10.836;2023-05-29T09:04:20;6.78;;;5.20;;
6113;SDS011;3087;48.392;10.836;2023-05-29T09:06:45;7.35;;;6.05;;
6113;SDS011;3087;48.392;10.836;2023-05-29T09:09:12;7.32;;;5.20;;
6113;SDS011;3087;48.392;10.836;2023-05-29T09:11:37;8.43;;;5.07;;
6113;SDS011;3087;48.392;10.836;2023-05-29T09:14:04;7.95;;;5.32;;
6113;SDS011;3087;48.392;10.836;2023-05-29T09:16:30;8.65;;;5.28;;
6113;SDS011;3087;48.392;10.836;2023-05-29T09:19:05;7.65;;;5.57;;
6113;SDS011;3087;48.392;10.836;2023-05-29T09:21:34;8.23;;;5.40;;
6113;SDS011;3087;48.392;10.836;2023-05-29T09:24:04;7.15;;;5.20;;
6113;SDS011;3087;48.392;10.836;2023-05-29T09:26:33;6.35;;;5.35;;
6113;SDS011;3087;48.392;10.836;2023-05-29T09:28:59;8.35;;;4.95;;
6113;SDS011;3087;48.392;10.836;2023-05-29T09:31:27;8.07;;;5.47;;
6113;SDS011;3087;48.392;10.836;2023-05-29T09:33:53;6.38;;;5.00;;
6113;SDS011;3087;48.392;10.836;2023-05-29T09:36:19;13.75;;;4.95;;
6113;SDS011;3087;48.392;10.836;2023-05-29T09:38:47;6.65;;;4.80;;
6113;SDS011;3087;48.392;10.836;2023-05-29T09:41:13;7.07;;;4.95;;
6113;SDS011;3087;48.392;10.836;2023-05-29T09:43:45;8.15;;;5.60;;
6113;SDS011;3087;48.392;10.836;2023-05-29T09:46:12;7.78;;;4.90;;
6113;SDS011;3087;48.392;10.836;2023-05-29T09:48:41;7.57;;;4.80;;
6113;SDS011;3087;48.392;10.836;2023-05-29T09:51:08;8.93;;;4.97;;
6113;SDS011;3087;48.392;10.836;2023-05-29T09:53:47;11.88;;;4.68;;
6113;SDS011;3087;48.392;10.836;2023-05-29T09:56:15;7.75;;;5.93;;
6113;SDS011;3087;48.392;10.836;2023-05-29T09:58:43;8.38;;;5.55;;
6113;SDS011;3087;48.392;10.836;2023-05-29T10:01:13;7.97;;;5.13;;
6113;SDS011;3087;48.392;10.836;2023-05-29T10:03:40;8.63;;;5.60;;
6113;SDS011;3087;48.392;10.836;2023-05-29T10:06:08;11.32;;;5.65;;
6113;SDS011;3087;48.392;10.836;2023-05-29T10:08:46;6.22;;;4.57;;
6113;SDS011;3087;48.392;10.836;2023-05-29T10:11:16;7.43;;;5.40;;
6113;SDS011;3087;48.392;10.836;2023-05-29T10:13:50;6.82;;;4.97;;
6113;SDS011;3087;48.392;10.836;2023-05-29T10:16:19;9.25;;;6.75;;
6113;SDS011;3087;48.392;10.836;2023-05-29T10:18:48;9.63;;;5.45;;
6113;SDS011;3087;48.392;10.836;2023-05-29T10:21:20;8.48;;;5.40;;
6113;SDS011;3087;48.392;10.836;2023-05-29T10:23:47;9.30;;;5.40;;
6113;SDS011;3087;48.392;10.836;2023-05-29T10:26:18;5.72;;;4.85;;
6113;SDS011;3087;48.392;10.836;2023-05-29T10:28:48;9.43;;;5.70;;
6113;SDS011;3087;48.392;10.836;2023-05-29T10:31:26;6.72;;;5.22;;
6113;SDS011;3087;48.392;10.836;2023-05-29T10:37:04;6.88;;;5.20;;
6113;SDS011;3087;48.392;10.836;2023-05-29T10:39:34;7.75;;;4.68;;
6113;SDS011;3087;48.392;10.836;2023-05-29T10:42:00;9.18;;;5.07;;
6113;SDS011;3087;48.392;10.836;2023-05-29T10:49:22;5.47;;;4.85;;
6113;SDS011;3087;48.392;10.836;2023-05-29T10:51:48;8.27;;;5.50;;
6113;SDS011;3087;48.392;10.836;2023-05-29T10:54:15;6.10;;;4.70;;
6113;SDS011;3087;48.392;10.836;2023-05-29T10:56:44;8.85;;;4.85;;
6113;SDS011;3087;48.392;10.836;2023-05-29T10:59:16;6.07;;;4.78;;
6113;SDS011;3087;48.392;10.836;2023-05-29T11:01:43;7.90;;;4.35;;
6113;SDS011;3087;48.392;10.836;2023-05-29T11:06:40;11.75;;;5.05;;
6113;SDS011;3087;48.392;10.836;2023-05-29T11:09:25;6.60;;;5.38;;
6113;SDS011;3087;48.392;10.836;2023-05-29T11:15:04;5.75;;;4.85;;
6113;SDS011;3087;48.392;10.836;2023-05-29T11:20:04;9.98;;;5.20;;
6113;SDS011;3087;48.392;10.836;2023-05-29T11:25:25;7.75;;;4.35;;
6113;SDS011;3087;48.392;10.836;2023-05-29T11:27:51;6.38;;;4.88;;
6113;SDS011;3087;48.392;10.836;2023-05-29T11:30:20;6.35;;;5.40;;
6113;SDS011;3087;48.392;10.836;2023-05-29T11:32:47;7.88;;;5.22;;
6113;SDS011;3087;48.392;10.836;2023-05-29T11:35:13;7.30;;;4.55;;
6113;SDS011;3087;48.392;10.836;2023-05-29T11:37:40;5.70;;;4.57;;
6113;SDS011;3087;48.392;10.836;2023-05-29T11:40:10;8.85;;;4.43;;
6113;SDS011;3087;48.392;10.836;2023-05-29T11:42:46;8.85;;;5.45;;
6113;SDS011;3087;48.392;10.836;2023-05-29T11:45:18;6.50;;;5.35;;
6113;SDS011;3087;48.392;10.836;2023-05-29T11:47:52;5.25;;;4.25;;
6113;SDS011;3087;48.392;10.836;2023-05-29T11:50:18;5.18;;;4.35;;
6113;SDS011;3087;48.392;10.836;2023-05-29T11:52:45;6.38;;;5.28;;
6113;SDS011;3087;48.392;10.836;2023-05-29T11:55:11;8.98;;;5.10;;
6113;SDS011;3087;48.392;10.836;2023-05-29T11:57:37;7.63;;;4.85;;
6113;SDS011;3087;48.392;10.836;2023-05-29T12:00:03;6.68;;;4.78;;
6113;SDS011;3087;48.392;10.836;2023-05-29T12:02:33;7.03;;;5.35;;
6113;SDS011;3087;48.392;10.836;2023-05-29T12:05:04;6.53;;;4.72;;
6113;SDS011;3087;48.392;10.836;2023-05-29T12:07:34;6.35;;;5.50;;
6113;SDS011;3087;48.392;10.836;2023-05-29T12:10:14;6.63;;;4.70;;
6113;SDS011;3087;48.392;10.836;2023-05-29T12:12:41;6.40;;;4.85;;
6113;SDS011;3087;48.392;10.836;2023-05-29T12:15:07;5.88;;;4.40;;
6113;SDS011;3087;48.392;10.836;2023-05-29T12:17:34;5.90;;;4.40;;
6113;SDS011;3087;48.392;10.836;2023-05-29T12:20:01;6.85;;;4.78;;
6113;SDS011;3087;48.392;10.836;2023-05-29T12:22:32;7.80;;;4.43;;
6113;SDS011;3087;48.392;10.836;2023-05-29T12:25:05;8.77;;;4.60;;
6113;SDS011;3087;48.392;10.836;2023-05-29T12:27:32;5.20;;;4.38;;
6113;SDS011;3087;48.392;10.836;2023-05-29T12:30:02;5.85;;;4.50;;
6113;SDS011;3087;48.392;10.836;2023-05-29T12:32:39;5.97;;;5.05;;
6113;SDS011;3087;48.392;10.836;2023-05-29T12:35:10;5.32;;;4.25;;
6113;SDS011;3087;48.392;10.836;2023-05-29T12:42:41;7.55;;;4.40;;
6113;SDS011;3087;48.392;10.836;2023-05-29T12:45:07;7.50;;;4.68;;
6113;SDS011;3087;48.392;10.836;2023-05-29T12:47:34;7.90;;;4.60;;
6113;SDS011;3087;48.392;10.836;2023-05-29T12:50:04;6.03;;;5.05;;
6113;SDS011;3087;48.392;10.836;2023-05-29T12:52:40;5.75;;;4.80;;
6113;SDS011;3087;48.392;10.836;2023-05-29T12:55:05;6.43;;;4.90;;
6113;SDS011;3087;48.392;10.836;2023-05-29T12:57:31;6.10;;;4.55;;
6113;SDS011;3087;48.392;10.836;2023-05-29T12:59:57;6.53;;;4.20;;
6113;SDS011;3087;48.392;10.836;2023-05-29T13:02:22;8.50;;;5.10;;
6113;SDS011;3087;48.392;10.836;2023-05-29T13:04:49;6.13;;;4.68;;
6113;SDS011;3087;48.392;10.836;2023-05-29T13:07:14;5.18;;;4.68;;
6113;SDS011;3087;48.392;10.836;2023-05-29T13:09:40;7.35;;;4.72;;
6113;SDS011;3087;48.392;10.836;2023-05-29T13:12:06;7.47;;;5.57;;
6113;SDS011;3087;48.392;10.836;2023-05-29T13:14:31;7.07;;;5.20;;
6113;SDS011;3087;48.392;10.836;2023-05-29T13:16:57;6.43;;;4.65;;
6113;SDS011;3087;48.392;10.836;2023-05-29T13:19:23;7.95;;;4.85;;
6113;SDS011;3087;48.392;10.836;2023-05-29T13:21:48;6.85;;;5.05;;
6113;SDS011;3087;48.392;10.836;2023-05-29T13:24:14;7.20;;;4.60;;
6113;SDS011;3087;48.392;10.836;2023-05-29T13:26:40;7.80;;;5.15;;
6113;SDS011;3087;48.392;10.836;2023-05-29T13:29:06;5.72;;;4.40;;
6113;SDS011;3087;48.392;10.836;2023-05-29T13:31:32;5.03;;;4.47;;
6113;SDS011;3087;48.392;10.836;2023-05-29T13:33:57;7.82;;;4.05;;
6113;SDS011;3087;48.392;10.836;2023-05-29T13:36:23;4.90;;;4.40;;
6113;SDS011;3087;48.392;10.836;2023-05-29T13:38:48;8.13;;;4.70;;
6113;SDS011;3087;48.392;10.836;2023-05-29T13:41:14;6.50;;;4.65;;
6113;SDS011;3087;48.392;10.836;2023-05-29T13:43:40;11.65;;;4.75;;
6113;SDS011;3087;48.392;10.836;2023-05-29T13:46:05;7.40;;;4.75;;
6113;SDS011;3087;48.392;10.836;2023-05-29T13:48:31;7.43;;;4.20;;
6113;SDS011;3087;48.392;10.836;2023-05-29T13:50:58;5.32;;;4.30;;
6113;SDS011;3087;48.392;10.836;2023-05-29T13:53:24;5.35;;;4.13;;
6113;SDS011;3087;48.392;10.836;2023-05-29T13:55:50;6.60;;;4.88;;
6113;SDS011;3087;48.392;10.836;2023-05-29T13:58:15;9.60;;;4.47;;
6113;SDS011;3087;48.392;10.836;2023-05-29T14:00:41;7.90;;;4.15;;
6113;SDS011;3087;48.392;10.836;2023-05-29T14:03:06;5.35;;;4.50;;
6113;SDS011;3087;48.392;10.836;2023-05-29T14:05:33;5.68;;;4.70;;
6113;SDS011;3087;48.392;10.836;2023-05-29T14:07:58;5.60;;;4.32;;
6113;SDS011;3087;48.392;10.836;2023-05-29T14:10:24;5.90;;;4.80;;
6113;SDS011;3087;48.392;10.836;2023-05-29T14:12:50;6.10;;;4.32;;
6113;SDS011;3087;48.392;10.836;2023-05-29T14:15:15;6.75;;;4.22;;
6113;SDS011;3087;48.392;10.836;2023-05-29T14:17:41;5.35;;;4.68;;
6113;SDS011;3087;48.392;10.836;2023-05-29T14:20:07;7.10;;;5.93;;
6113;SDS011;3087;48.392;10.836;2023-05-29T14:22:33;6.20;;;4.40;;
6113;SDS011;3087;48.392;10.836;2023-05-29T14:25:00;10.88;;;6.82;;
6113;SDS011;3087;48.392;10.836;2023-05-29T14:27:26;5.13;;;4.15;;
6113;SDS011;3087;48.392;10.836;2023-05-29T14:29:52;6.82;;;4.50;;
6113;SDS011;3087;48.392;10.836;2023-05-29T14:32:17;5.93;;;4.60;;
6113;SDS011;3087;48.392;10.836;2023-05-29T14:34:43;6.28;;;4.40;;
6113;SDS011;3087;48.392;10.836;2023-05-29T14:37:08;6.35;;;4.38;;
6113;SDS011;3087;48.392;10.836;2023-05-29T14:39:34;5.45;;;4.47;;
6113;SDS011;3087;48.392;10.836;2023-05-29T14:41:59;6.70;;;4.90;;
6113;SDS011;3087;48.392;10.836;2023-05-29T14:44:25;7.32;;;4.25;;
6113;SDS011;3087;48.392;10.836;2023-05-29T14:46:51;5.70;;;3.95;;
6113;SDS011;3087;48.392;10.836;2023-05-29T14:49:16;5.80;;;4.60;;
6113;SDS011;3087;48.392;10.836;2023-05-29T14:51:42;4.55;;;4.07;;
6113;SDS011;3087;48.392;10.836;2023-05-29T14:54:09;7.68;;;4.53;;
6113;SDS011;3087;48.392;10.836;2023-05-29T14:56:36;4.78;;;3.90;;
6113;SDS011;3087;48.392;10.836;2023-05-29T14:59:02;5.78;;;5.10;;
6113;SDS011;3087;48.392;10.836;2023-05-29T15:01:28;6.43;;;4.15;;
6113;SDS011;3087;48.392;10.836;2023-05-29T15:03:53;5.70;;;4.10;;
6113;SDS011;3087;48.392;10.836;2023-05-29T15:06:19;5.97;;;4.15;;
6113;SDS011;3087;48.392;10.836;2023-05-29T15:08:45;5.57;;;4.38;;
6113;SDS011;3087;48.392;10.836;2023-05-29T15:11:10;5.32;;;4.00;;
6113;SDS011;3087;48.392;10.836;2023-05-29T15:13:40;4.25;;;3.80;;
6113;SDS011;3087;48.392;10.836;2023-05-29T15:16:05;4.25;;;3.70;;
6113;SDS011;3087;48.392;10.836;2023-05-29T15:18:32;6.70;;;4.00;;
6113;SDS011;3087;48.392;10.836;2023-05-29T15:20:58;11.85;;;4.43;;
6113;SDS011;3087;48.392;10.836;2023-05-29T15:23:24;6.13;;;4.88;;
6113;SDS011;3087;48.392;10.836;2023-05-29T15:25:50;4.65;;;3.95;;
6113;SDS011;3087;48.392;10.836;2023-05-29T15:28:16;4.72;;;4.00;;